createdAt,value
2023-02-27T00:01:49.290Z,22.10
2023-02-27T00:06:51.073Z,25.00
2023-02-27T00:11:57.735Z,18.90
2023-02-27T00:17:04.094Z,21.90
2023-02-27T00:22:05.838Z,19.10
2023-02-27T00:27:07.554Z,18.70
2023-02-27T00:32:09.253Z,17.10
2023-02-27T00:37:13.218Z,20.30
2023-02-27T00:42:15.012Z,16.60
2023-02-27T00:52:18.632Z,19.50
2023-02-27T01:02:22.531Z,14.30
2023-02-27T01:07:24.605Z,17.60
2023-02-27T01:12:26.370Z,14.80
2023-02-27T01:17:28.057Z,11.60
2023-02-27T01:22:29.729Z,13.10
2023-02-27T01:32:33.520Z,12.10
2023-02-27T01:37:35.496Z,9.90
2023-02-27T01:47:48.310Z,11.20
2023-02-27T01:52:56.205Z,10.00
2023-02-27T01:57:58.236Z,15.10
2023-02-27T02:03:08.268Z,13.90
2023-02-27T02:08:13.970Z,8.80
2023-02-27T02:13:15.744Z,9.80
2023-02-27T02:23:21.808Z,8.00
2023-02-27T02:28:52.932Z,11.00
2023-02-27T02:34:01.893Z,15.70
2023-02-27T02:39:24.041Z,17.10
2023-02-27T02:44:40.908Z,22.00
2023-02-27T02:49:50.450Z,19.40
2023-02-27T02:55:16.725Z,23.70
2023-02-27T03:00:22.779Z,18.90
2023-02-27T03:05:32.094Z,9.90
2023-02-27T03:10:50.544Z,8.90
2023-02-27T03:16:11.575Z,10.70
2023-02-27T03:21:22.716Z,10.00
2023-02-27T03:26:33.580Z,7.20
2023-02-27T03:31:47.643Z,6.90
2023-02-27T03:37:11.574Z,6.90
2023-02-27T03:42:41.722Z,9.70
2023-02-27T03:47:51.963Z,5.50
2023-02-27T03:52:54.715Z,5.30
2023-02-27T03:57:56.729Z,4.10
2023-02-27T04:03:00.555Z,5.90
2023-02-27T04:08:37.362Z,7.70
2023-02-27T04:14:22.949Z,5.30
2023-02-27T04:19:42.936Z,5.30
2023-02-27T04:25:01.738Z,8.10
2023-02-27T04:30:14.068Z,6.90
2023-02-27T04:35:29.523Z,7.80
2023-02-27T04:40:49.109Z,10.90
2023-02-27T04:45:53.390Z,9.60
2023-02-27T04:51:03.259Z,9.20
2023-02-27T04:56:12.013Z,11.00
2023-02-27T05:06:35.422Z,7.70
2023-02-27T05:11:53.724Z,13.40
2023-02-27T05:17:40.032Z,11.10
2023-02-27T05:22:51.196Z,12.90
2023-02-27T05:28:02.768Z,10.50
2023-02-27T05:38:28.663Z,11.60
2023-02-27T05:43:48.985Z,11.20
2023-02-27T05:48:57.212Z,13.20
2023-02-27T05:54:16.312Z,12.40
2023-02-27T05:59:26.555Z,13.60
2023-02-27T06:04:28.909Z,9.60
2023-02-27T06:09:31.869Z,12.30
2023-02-27T06:14:33.537Z,14.40
2023-02-27T06:24:37.424Z,12.40
2023-02-27T06:29:39.078Z,10.80
2023-02-27T06:39:42.387Z,7.30
2023-02-27T06:44:44.110Z,6.40
2023-02-27T06:49:45.783Z,11.80
2023-02-27T07:04:51.353Z,11.00
2023-02-27T07:09:53.121Z,12.00
2023-02-27T07:19:56.358Z,9.80
2023-02-27T07:24:58.038Z,15.30
2023-02-27T07:30:00.316Z,16.10
2023-02-27T07:35:03.439Z,10.20
2023-02-27T07:40:07.702Z,7.60
2023-02-27T07:45:09.952Z,11.20
2023-02-27T07:50:14.067Z,15.00
2023-02-27T07:55:15.898Z,11.80
2023-02-27T08:00:18.176Z,12.90
2023-02-27T08:05:19.857Z,11.70
2023-02-27T08:20:25.341Z,15.80
2023-02-27T08:25:27.207Z,11.40
2023-02-27T08:30:29.088Z,12.50
2023-02-27T08:35:31.426Z,12.20
2023-02-27T08:40:33.271Z,11.40
2023-02-27T08:50:36.478Z,13.20
2023-02-27T09:05:42.565Z,15.30
2023-02-27T09:10:44.305Z,14.10
2023-02-27T09:20:51.207Z,12.70
2023-02-27T09:25:53.122Z,8.10
2023-02-27T09:30:54.784Z,10.00
2023-02-27T09:40:59.593Z,12.60
2023-02-27T09:46:02.936Z,6.90
2023-02-27T09:51:05.171Z,5.70
2023-02-27T09:56:21.660Z,8.10
2023-02-27T10:01:57.161Z,11.90
2023-02-27T10:07:04.022Z,9.50
2023-02-27T10:12:14.740Z,10.20
2023-02-27T10:17:28.425Z,8.90
2023-02-27T10:22:43.247Z,9.20
2023-02-27T10:27:48.329Z,11.40
2023-02-27T10:32:54.378Z,14.00
2023-02-27T10:38:01.900Z,8.60
2023-02-27T10:43:06.439Z,11.80
2023-02-27T10:48:08.715Z,11.70
2023-02-27T10:53:22.478Z,11.60
2023-02-27T10:58:24.616Z,9.00
2023-02-27T11:03:32.475Z,6.40
2023-02-27T11:08:35.882Z,2.70
2023-02-27T11:13:47.074Z,4.40
2023-02-27T11:18:51.164Z,7.30
2023-02-27T11:24:02.153Z,4.80
2023-02-27T11:29:17.758Z,4.10
2023-02-27T11:34:48.173Z,9.50
2023-02-27T11:39:57.813Z,6.50
2023-02-27T11:45:07.632Z,6.40
2023-02-27T11:50:32.160Z,3.90
2023-02-27T11:55:34.974Z,4.30
2023-02-27T12:00:42.340Z,5.60
2023-02-27T12:05:48.636Z,4.40
2023-02-27T12:11:22.033Z,5.60
2023-02-27T12:16:43.151Z,5.30
2023-02-27T12:21:50.122Z,4.50
2023-02-27T12:27:01.244Z,6.60
2023-02-27T12:32:40.806Z,7.30
2023-02-27T12:37:42.577Z,7.50
2023-02-27T12:43:10.878Z,4.20
2023-02-27T12:48:23.903Z,5.10
2023-02-27T12:53:25.547Z,8.00
2023-02-27T13:04:00.552Z,6.90
2023-02-27T13:09:15.867Z,7.70
2023-02-27T13:14:53.619Z,6.50
2023-02-27T13:20:01.807Z,7.00
2023-02-27T13:25:14.251Z,9.50
2023-02-27T13:30:22.944Z,8.80
2023-02-27T13:35:36.261Z,9.50
2023-02-27T13:40:40.913Z,7.10
2023-02-27T13:45:59.197Z,13.00
2023-02-27T13:51:01.773Z,7.40
2023-02-27T13:56:22.298Z,10.60
2023-02-27T14:01:28.563Z,6.70
2023-02-27T14:06:30.956Z,8.00
2023-02-27T14:11:39.705Z,5.80
2023-02-27T14:16:41.362Z,7.80
2023-02-27T14:27:24.062Z,7.50
2023-02-27T14:32:33.757Z,11.30
2023-02-27T14:37:36.285Z,10.70
2023-02-27T14:42:56.949Z,11.00
2023-02-27T14:47:59.041Z,9.70
2023-02-27T14:53:01.655Z,23.80
2023-02-27T14:58:16.157Z,15.70
2023-02-27T15:03:32.435Z,14.50
2023-02-27T15:08:41.898Z,9.80
2023-02-27T15:13:45.032Z,13.10
2023-02-27T15:18:50.910Z,16.20
2023-02-27T15:24:01.351Z,20.70
2023-02-27T15:29:06.179Z,17.80
2023-02-27T15:34:13.976Z,14.50
2023-02-27T15:39:19.032Z,12.20
2023-02-27T15:44:26.062Z,12.60
2023-02-27T15:49:27.869Z,10.70
2023-02-27T15:54:34.390Z,12.50
2023-02-27T15:59:42.100Z,13.70
2023-02-27T16:04:46.059Z,12.60
2023-02-27T16:10:00.699Z,13.20
2023-02-27T16:15:21.040Z,14.40
2023-02-27T16:20:54.986Z,11.30
2023-02-27T16:26:09.005Z,13.00
2023-02-27T16:31:40.656Z,18.00
2023-02-27T16:36:52.931Z,18.90
2023-02-27T16:41:56.890Z,15.70
2023-02-27T16:47:12.107Z,17.60
2023-02-27T16:52:13.773Z,23.20
2023-02-27T17:02:19.317Z,26.60
2023-02-27T17:12:22.648Z,26.30
2023-02-27T17:22:26.049Z,19.50
2023-02-27T17:27:27.810Z,16.90
2023-02-27T17:32:29.702Z,13.00
2023-02-27T17:37:31.415Z,17.80
2023-02-27T17:42:35.795Z,21.00
2023-02-27T17:47:37.528Z,18.30
2023-02-27T17:52:39.991Z,21.00
2023-02-27T17:57:41.816Z,17.20
2023-02-27T18:02:45.037Z,12.80
2023-02-27T18:07:46.713Z,16.20
2023-02-27T18:17:50.118Z,24.10
2023-02-27T18:22:51.923Z,14.80
2023-02-27T18:32:59.503Z,14.40
2023-02-27T18:38:02.343Z,23.60
2023-02-27T18:43:04.918Z,20.30
2023-02-27T18:48:06.892Z,28.90
2023-02-27T18:58:10.451Z,28.30
2023-02-27T19:03:12.315Z,26.30
2023-02-27T19:08:14.112Z,28.30
2023-02-27T19:13:15.803Z,39.20
2023-02-27T19:18:17.598Z,35.70
2023-02-27T19:23:19.322Z,47.10
2023-02-27T19:28:21.289Z,44.20
2023-02-27T19:38:24.716Z,40.60
2023-02-27T19:43:26.566Z,38.50
2023-02-27T19:48:28.292Z,38.10
2023-02-27T19:58:33.559Z,36.80
2023-02-27T20:03:36.450Z,37.30
2023-02-27T20:08:38.195Z,41.60
2023-02-27T20:18:42.929Z,37.50
2023-02-27T20:23:47.486Z,36.50
2023-02-27T20:28:52.168Z,50.10
2023-02-27T20:33:54.721Z,40.40
2023-02-27T20:38:58.447Z,52.90
2023-02-27T20:44:01.339Z,57.60
2023-02-27T20:49:04.498Z,68.70
2023-02-27T20:54:09.157Z,71.30
2023-02-27T20:59:14.970Z,66.70
2023-02-27T21:04:19.803Z,67.60
2023-02-27T21:09:22.281Z,74.10
2023-02-27T21:14:23.992Z,75.40
2023-02-27T21:19:26.017Z,76.30
2023-02-27T21:24:27.730Z,73.50
2023-02-27T21:34:31.650Z,61.40
2023-02-27T21:44:35.265Z,59.90
2023-02-27T21:49:38.414Z,53.40
2023-02-27T21:54:40.274Z,65.70
2023-02-27T21:59:42.587Z,67.00
2023-02-27T22:04:44.243Z,53.80
2023-02-27T22:09:49.859Z,54.40
2023-02-27T22:14:55.448Z,57.80
2023-02-27T22:19:57.927Z,45.90
2023-02-27T22:24:59.737Z,46.90
2023-02-27T22:30:01.549Z,37.10
2023-02-27T22:35:03.421Z,25.60
2023-02-27T22:40:05.895Z,24.90
2023-02-27T22:45:08.967Z,24.60
2023-02-27T22:50:14.254Z,25.70
2023-02-27T22:55:17.310Z,29.10
2023-02-27T23:00:19.226Z,36.30
2023-02-27T23:05:21.038Z,30.90
2023-02-27T23:15:24.390Z,32.00
2023-02-27T23:30:30.163Z,26.00
2023-02-27T23:35:31.857Z,30.00
2023-02-27T23:40:35.978Z,28.20
2023-02-27T23:45:39.806Z,28.40
2023-02-27T23:50:43.897Z,25.40
2023-02-27T23:55:45.677Z,30.60
